Time;durP1;ratioP1;P1;durP2;ratioP2;P2;SDS_P1;SDS_P2;PMS_P1;PMS_P2;Temp;Humidity;BMP_temperature;BMP_pressure;BME280_temperature;BME280_humidity;BME280_pressure;Samples;Min_cycle;Max_cycle;Signal;HPM_P1;HPM_P2
2022/09/30 00:00:07;;;;;;;14.80;12.53;;;8.40;99.90;;;;;;5069347;28;20292;-50
2022/09/30 00:02:33;;;;;;;16.43;13.30;;;8.50;99.90;;;;;;5069082;28;20192;-51
2022/09/30 00:04:58;;;;;;;15.70;13.17;;;8.40;99.90;;;;;;5055782;28;20435;-51
2022/09/30 00:07:24;;;;;;;16.30;13.97;;;8.40;99.90;;;;;;5063906;28;20229;-49
2022/09/30 00:09:49;;;;;;;15.23;13.50;;;8.50;99.90;;;;;;5069226;28;20516;-50
2022/09/30 00:12:16;;;;;;;15.60;14.00;;;8.40;99.90;;;;;;5069933;28;20184;-51
2022/09/30 00:14:42;;;;;;;16.87;14.03;;;8.40;99.90;;;;;;5062448;28;20189;-51
2022/09/30 00:17:07;;;;;;;15.83;14.00;;;8.40;99.90;;;;;;5062621;28;21018;-49
2022/09/30 00:19:33;;;;;;;17.50;13.80;;;8.40;99.90;;;;;;5061701;28;20218;-49
2022/09/30 00:21:59;;;;;;;15.47;13.57;;;8.40;99.90;;;;;;5068974;28;20654;-53
2022/09/30 00:24:24;;;;;;;16.47;13.37;;;8.40;99.90;;;;;;5065516;28;20184;-51
2022/09/30 00:26:50;;;;;;;16.30;13.30;;;8.40;99.90;;;;;;5068505;28;20222;-49
2022/09/30 00:29:15;;;;;;;17.00;14.10;;;8.40;99.90;;;;;;5069156;28;20191;-48
2022/09/30 00:31:41;;;;;;;16.10;13.37;;;8.50;99.90;;;;;;5062760;28;20181;-48
2022/09/30 00:34:07;;;;;;;15.80;14.03;;;8.50;99.90;;;;;;5069273;28;20646;-50
2022/09/30 00:36:33;;;;;;;16.23;13.37;;;8.50;99.90;;;;;;5063900;28;20571;-49
2022/09/30 00:38:59;;;;;;;17.20;13.30;;;8.50;99.90;;;;;;5051972;28;20663;-51
2022/09/30 00:41:24;;;;;;;15.70;13.90;;;8.50;99.90;;;;;;5051018;28;20443;-53
2022/09/30 00:43:52;;;;;;;17.50;14.80;;;8.60;99.90;;;;;;5068462;28;20601;-50
2022/09/30 00:46:34;;;;;;;15.37;12.60;;;8.60;99.90;;;;;;5068407;28;20696;-48
2022/09/30 00:49:22;;;;;;;17.40;13.43;;;8.60;99.90;;;;;;5061734;28;20921;-47
2022/09/30 00:51:53;;;;;;;14.53;13.03;;;8.70;99.90;;;;;;5064117;28;20424;-51
2022/09/30 00:54:26;;;;;;;17.23;13.37;;;8.70;99.90;;;;;;5066923;28;20451;-50
2022/09/30 00:56:54;;;;;;;18.80;14.20;;;8.60;99.90;;;;;;5060028;28;20482;-51
2022/09/30 00:59:28;;;;;;;17.47;13.70;;;8.60;99.90;;;;;;5063188;28;20465;-54
2022/09/30 01:01:54;;;;;;;15.43;13.83;;;8.60;99.90;;;;;;5068171;28;20435;-52
2022/09/30 01:04:24;;;;;;;16.73;13.77;;;8.60;99.90;;;;;;5068109;28;20767;-50
2022/09/30 01:06:50;;;;;;;15.63;14.00;;;8.60;99.90;;;;;;5064108;28;20467;-49
2022/09/30 01:09:17;;;;;;;15.57;13.90;;;8.50;99.90;;;;;;5063674;28;20875;-49
2022/09/30 01:11:43;;;;;;;16.57;14.03;;;8.60;99.90;;;;;;5067176;28;20438;-49
2022/09/30 01:14:20;;;;;;;17.40;14.60;;;8.60;99.90;;;;;;5053320;28;20434;-50
2022/09/30 01:16:51;;;;;;;16.47;14.40;;;8.60;99.90;;;;;;5059197;28;20936;-50
2022/09/30 01:19:57;;;;;;;16.47;14.77;;;8.60;99.90;;;;;;5066898;28;20435;-48
2022/09/30 01:22:41;;;;;;;16.77;14.83;;;8.50;99.90;;;;;;5059002;28;20474;-50
2022/09/30 01:25:44;;;;;;;17.10;14.30;;;8.50;99.90;;;;;;5067546;28;20418;-52
2022/09/30 01:28:47;;;;;;;16.97;14.40;;;8.60;99.90;;;;;;5052177;28;20471;-51
2022/09/30 01:31:27;;;;;;;17.03;14.40;;;8.60;99.90;;;;;;5050529;28;20462;-47
2022/09/30 01:34:09;;;;;;;16.67;14.10;;;8.60;99.90;;;;;;5066657;28;20493;-51
2022/09/30 01:36:53;;;;;;;18.57;15.80;;;8.60;99.90;;;;;;5055155;28;20475;-48
2022/09/30 01:39:30;;;;;;;17.87;14.90;;;8.60;99.90;;;;;;5067104;28;20427;-50
2022/09/30 01:42:13;;;;;;;18.20;14.77;;;8.60;99.90;;;;;;5059811;28;20422;-50
2022/09/30 01:44:46;;;;;;;17.00;14.30;;;8.50;99.90;;;;;;5058259;28;20408;-50
2022/09/30 01:47:47;;;;;;;17.23;15.03;;;8.60;99.90;;;;;;5061437;28;20460;-52
2022/09/30 01:50:22;;;;;;;18.03;13.97;;;8.60;99.90;;;;;;5048150;28;20431;-52
2022/09/30 01:53:19;;;;;;;17.00;14.80;;;8.60;99.90;;;;;;5060555;28;20903;-51
2022/09/30 01:55:53;;;;;;;17.43;14.33;;;8.60;99.90;;;;;;5060863;28;20440;-48
2022/09/30 01:58:41;;;;;;;16.73;14.40;;;8.60;99.90;;;;;;5055848;28;20448;-53
2022/09/30 02:01:15;;;;;;;18.60;14.90;;;8.60;99.90;;;;;;5057790;28;20439;-53
2022/09/30 02:03:55;;;;;;;16.97;15.17;;;8.60;99.90;;;;;;5065559;28;20426;-49
2022/09/30 02:06:27;;;;;;;17.17;15.23;;;8.60;99.90;;;;;;5066143;28;20423;-50
2022/09/30 02:08:59;;;;;;;18.60;15.10;;;8.60;99.90;;;;;;5065270;28;20470;-48
2022/09/30 02:11:31;;;;;;;18.03;15.17;;;8.60;99.90;;;;;;5059511;28;20758;-50
2022/09/30 02:14:30;;;;;;;17.47;15.67;;;8.50;99.90;;;;;;5065108;28;20443;-48
2022/09/30 02:17:14;;;;;;;19.33;16.10;;;8.50;99.90;;;;;;5066402;28;20462;-49
2022/09/30 02:19:48;;;;;;;16.10;14.03;;;8.50;99.90;;;;;;5062024;28;20443;-52
2022/09/30 02:22:23;;;;;;;18.13;16.20;;;8.50;99.90;;;;;;5067796;28;20428;-52
2022/09/30 02:24:55;;;;;;;18.20;14.77;;;8.50;99.90;;;;;;5063885;28;20577;-52
2022/09/30 02:27:33;;;;;;;17.17;15.30;;;8.50;99.90;;;;;;5061555;28;20944;-53
2022/09/30 02:30:01;;;;;;;17.53;15.00;;;8.50;99.90;;;;;;5064470;28;20794;-53
2022/09/30 02:32:36;;;;;;;18.83;14.80;;;8.50;99.90;;;;;;5055256;28;20921;-53
2022/09/30 02:35:10;;;;;;;17.50;15.50;;;8.50;99.90;;;;;;5067845;28;20412;-46
2022/09/30 02:37:43;;;;;;;20.53;15.40;;;8.50;99.90;;;;;;5059181;28;20472;-48
2022/09/30 02:40:22;;;;;;;16.70;14.50;;;8.40;99.90;;;;;;5059737;28;20534;-51
2022/09/30 02:42:48;;;;;;;15.80;14.10;;;8.50;99.90;;;;;;5058261;28;20952;-47
2022/09/30 02:45:18;;;;;;;18.33;14.83;;;8.50;99.90;;;;;;5065990;28;20427;-47
2022/09/30 02:48:05;;;;;;;19.17;14.90;;;8.50;99.90;;;;;;5054729;28;21025;-46
2022/09/30 02:50:49;;;;;;;19.40;14.87;;;8.50;99.90;;;;;;5056887;28;20441;-48
2022/09/30 02:53:34;;;;;;;17.37;15.53;;;8.50;99.90;;;;;;5055610;28;20430;-50
2022/09/30 02:56:27;;;;;;;18.57;15.40;;;8.40;99.90;;;;;;5061670;28;20516;-51
2022/09/30 02:58:55;;;;;;;17.67;14.93;;;8.40;99.90;;;;;;5066212;28;20530;-50
2022/09/30 03:01:21;;;;;;;17.17;14.97;;;8.40;99.90;;;;;;5069440;28;21019;-50
2022/09/30 03:03:55;;;;;;;19.90;15.30;;;8.50;99.90;;;;;;5062151;28;20545;-48
2022/09/30 03:06:21;;;;;;;21.60;15.90;;;8.50;99.90;;;;;;5071068;28;20821;-52
2022/09/30 03:08:47;;;;;;;15.90;13.90;;;8.50;99.90;;;;;;5061515;28;20486;-52
2022/09/30 03:11:20;;;;;;;20.97;16.37;;;8.50;99.90;;;;;;5069319;28;20420;-49
2022/09/30 03:14:04;;;;;;;17.50;14.93;;;8.60;99.90;;;;;;5065571;28;20196;-51
2022/09/30 03:16:57;;;;;;;18.00;14.90;;;8.50;99.90;;;;;;5070224;28;20438;-52
2022/09/30 03:19:53;;;;;;;19.47;14.80;;;8.50;99.90;;;;;;5063486;28;20447;-53
2022/09/30 03:22:39;;;;;;;18.13;15.03;;;8.60;99.90;;;;;;5063682;28;20596;-51
2022/09/30 03:25:18;;;;;;;21.03;15.80;;;8.50;99.90;;;;;;5070774;28;20914;-53
2022/09/30 03:27:43;;;;;;;16.80;14.57;;;8.50;99.90;;;;;;5065657;28;20552;-51
2022/09/30 03:30:18;;;;;;;17.93;14.50;;;8.50;99.90;;;;;;5066836;28;21033;-48
2022/09/30 03:32:51;;;;;;;19.13;15.10;;;8.50;99.90;;;;;;5070050;28;20246;-49
2022/09/30 03:35:23;;;;;;;17.67;14.77;;;8.40;99.90;;;;;;5070456;28;20423;-51
2022/09/30 03:38:04;;;;;;;19.33;15.73;;;8.50;99.90;;;;;;5059776;28;20803;-52
2022/09/30 03:40:35;;;;;;;18.47;15.53;;;8.50;99.90;;;;;;5065852;28;20443;-49
2022/09/30 03:43:08;;;;;;;17.67;15.37;;;8.50;99.90;;;;;;5057249;28;20462;-50
2022/09/30 03:45:45;;;;;;;17.70;15.60;;;8.50;99.90;;;;;;5070582;28;20498;-48
2022/09/30 03:48:13;;;;;;;16.40;14.70;;;8.50;99.90;;;;;;5058820;28;20502;-53
2022/09/30 03:50:40;;;;;;;17.67;15.77;;;8.50;99.90;;;;;;5062400;28;20438;-50
2022/09/30 03:53:11;;;;;;;18.10;15.80;;;8.50;99.90;;;;;;5061575;28;20942;-49
2022/09/30 03:55:50;;;;;;;18.00;15.57;;;8.50;99.90;;;;;;5069816;28;20438;-53
2022/09/30 03:58:18;;;;;;;17.23;15.40;;;8.50;99.90;;;;;;5065053;28;20611;-49
2022/09/30 04:00:51;;;;;;;17.53;14.90;;;8.50;99.90;;;;;;5068786;28;20962;-49
2022/09/30 04:03:18;;;;;;;19.50;15.43;;;8.50;99.90;;;;;;5056362;28;20415;-54
2022/09/30 04:05:45;;;;;;;18.17;15.70;;;8.40;99.90;;;;;;5068108;28;20439;-49
2022/09/30 04:08:11;;;;;;;17.90;14.90;;;8.40;99.90;;;;;;5069934;28;20983;-48
2022/09/30 04:10:40;;;;;;;20.63;15.17;;;8.40;99.90;;;;;;5065992;28;20899;-48
2022/09/30 04:13:06;;;;;;;16.43;14.67;;;8.40;99.90;;;;;;5064489;28;20436;-46
2022/09/30 04:15:32;;;;;;;17.30;15.47;;;8.40;99.90;;;;;;5058132;28;20435;-49
2022/09/30 04:17:58;;;;;;;18.80;15.83;;;8.40;99.90;;;;;;5069111;28;20427;-48
2022/09/30 04:20:24;;;;;;;17.17;14.77;;;8.40;99.90;;;;;;5056523;28;20185;-49
2022/09/30 04:22:49;;;;;;;19.50;16.43;;;8.30;99.90;;;;;;5051656;28;20854;-50
2022/09/30 04:25:15;;;;;;;19.33;15.97;;;8.30;99.90;;;;;;5047585;28;20208;-49
2022/09/30 04:27:40;;;;;;;18.53;15.80;;;8.30;99.90;;;;;;5058969;28;20603;-50
2022/09/30 04:30:06;;;;;;;19.17;15.23;;;8.20;99.90;;;;;;5047203;28;20620;-52
2022/09/30 04:32:32;;;;;;;16.83;14.73;;;8.20;99.90;;;;;;5059625;28;20198;-52
2022/09/30 04:34:57;;;;;;;16.80;15.00;;;8.20;99.90;;;;;;5059621;28;20707;-50
2022/09/30 04:37:23;;;;;;;18.57;15.30;;;8.20;99.90;;;;;;5048999;28;20711;-53
2022/09/30 04:39:49;;;;;;;18.07;15.60;;;8.10;99.90;;;;;;5052007;28;20733;-54
2022/09/30 04:42:16;;;;;;;19.40;15.70;;;8.10;99.90;;;;;;5059458;28;20686;-49
2022/09/30 04:44:41;;;;;;;17.50;15.50;;;8.00;99.90;;;;;;5064530;28;20212;-52
2022/09/30 04:47:07;;;;;;;21.47;16.83;;;7.90;99.90;;;;;;5065042;28;20498;-52
2022/09/30 04:49:33;;;;;;;19.63;15.53;;;7.80;99.90;;;;;;5060669;28;20433;-49
2022/09/30 04:51:58;;;;;;;21.10;16.67;;;7.70;99.90;;;;;;5063793;28;20798;-51
2022/09/30 04:54:24;;;;;;;18.67;15.73;;;7.70;99.90;;;;;;5060264;28;20191;-54
2022/09/30 04:56:50;;;;;;;19.00;15.80;;;7.70;99.90;;;;;;5069134;28;20184;-50
2022/09/30 04:59:15;;;;;;;20.93;16.30;;;7.70;99.90;;;;;;5067573;28;20246;-50
2022/09/30 05:01:42;;;;;;;19.73;15.70;;;7.70;99.90;;;;;;5064262;28;20260;-47
2022/09/30 05:04:08;;;;;;;21.33;16.07;;;7.60;99.90;;;;;;5049024;28;20234;-48
2022/09/30 05:06:34;;;;;;;23.77;17.67;;;7.60;99.90;;;;;;5048889;28;20423;-52
2022/09/30 05:08:59;;;;;;;21.00;16.47;;;7.60;99.90;;;;;;5054931;28;20474;-49
2022/09/30 05:11:25;;;;;;;19.10;15.77;;;7.50;99.90;;;;;;5051040;28;20262;-50
2022/09/30 05:13:50;;;;;;;19.20;16.27;;;7.50;99.90;;;;;;5049030;28;20561;-49
2022/09/30 05:16:16;;;;;;;20.93;16.50;;;7.50;99.90;;;;;;5048891;28;20985;-46
2022/09/30 05:18:44;;;;;;;20.10;16.77;;;7.50;99.90;;;;;;5056045;28;20212;-44
2022/09/30 05:21:11;;;;;;;21.70;16.57;;;7.40;99.90;;;;;;5069272;28;20185;-46
2022/09/30 05:23:37;;;;;;;21.40;16.83;;;7.40;99.90;;;;;;5068143;28;20453;-46
2022/09/30 05:26:03;;;;;;;20.90;16.20;;;7.40;99.90;;;;;;5068499;28;20450;-47
2022/09/30 05:28:32;;;;;;;24.47;16.37;;;7.30;99.90;;;;;;5068413;28;20816;-47
2022/09/30 05:31:01;;;;;;;20.30;16.60;;;7.30;99.90;;;;;;5068744;28;20453;-46
2022/09/30 05:33:30;;;;;;;21.53;17.73;;;7.40;99.90;;;;;;5068643;28;20420;-47
2022/09/30 05:36:01;;;;;;;21.83;17.20;;;7.40;99.90;;;;;;5068666;28;20937;-50
2022/09/30 05:38:27;;;;;;;21.10;17.47;;;7.40;99.90;;;;;;5064407;28;20773;-46
2022/09/30 05:40:53;;;;;;;22.43;17.07;;;7.40;99.90;;;;;;5058266;28;20465;-48
2022/09/30 05:43:19;;;;;;;21.93;19.10;;;7.50;99.90;;;;;;5068416;28;20446;-45
2022/09/30 05:45:57;;;;;;;25.07;19.20;;;7.60;99.90;;;;;;5068676;28;20429;-45
2022/09/30 05:48:24;;;;;;;23.67;19.13;;;7.60;99.90;;;;;;5068393;28;20288;-47
2022/09/30 05:50:54;;;;;;;23.27;19.20;;;7.60;99.90;;;;;;5068435;28;20976;-49
2022/09/30 05:53:20;;;;;;;24.40;18.40;;;7.70;99.90;;;;;;5068345;28;20411;-47
2022/09/30 05:55:46;;;;;;;22.70;19.07;;;7.70;99.90;;;;;;5068274;28;20843;-49
2022/09/30 05:58:13;;;;;;;23.67;18.30;;;7.80;99.90;;;;;;5068054;28;20218;-45
2022/09/30 06:00:43;;;;;;;23.17;18.30;;;7.80;99.90;;;;;;5067882;28;20427;-50
2022/09/30 06:03:09;;;;;;;23.57;18.47;;;7.90;99.90;;;;;;5054519;28;20415;-48
2022/09/30 06:05:35;;;;;;;22.30;19.23;;;7.90;99.90;;;;;;5068545;28;20408;-46
2022/09/30 06:08:01;;;;;;;22.53;18.00;;;8.00;99.90;;;;;;5068331;28;20246;-48
2022/09/30 06:10:27;;;;;;;20.20;17.67;;;8.10;99.90;;;;;;5054485;28;20525;-47
2022/09/30 06:12:53;;;;;;;21.57;17.90;;;8.20;99.90;;;;;;5067694;28;20426;-46
2022/09/30 06:15:18;;;;;;;22.73;17.07;;;8.30;99.90;;;;;;5068058;28;20177;-46
2022/09/30 06:17:45;;;;;;;21.67;18.27;;;8.30;99.90;;;;;;5066663;28;20706;-47
2022/09/30 06:20:11;;;;;;;19.30;16.93;;;8.40;99.90;;;;;;5068052;28;20186;-50
2022/09/30 06:22:37;;;;;;;22.00;17.67;;;8.50;99.90;;;;;;5068137;28;20426;-47
2022/09/30 06:25:06;;;;;;;20.67;17.00;;;8.60;99.90;;;;;;5068107;28;20779;-45
2022/09/30 06:27:37;;;;;;;18.73;16.27;;;8.70;99.90;;;;;;5067848;28;20204;-49
2022/09/30 06:30:06;;;;;;;20.50;16.80;;;8.80;99.90;;;;;;5066616;28;20763;-45
2022/09/30 06:32:32;;;;;;;21.10;17.47;;;8.90;99.90;;;;;;5059948;28;20439;-45
2022/09/30 06:34:58;;;;;;;19.03;16.07;;;9.00;99.90;;;;;;5047805;28;20422;-46
2022/09/30 06:37:24;;;;;;;20.90;15.70;;;9.10;99.90;;;;;;5051603;28;20460;-45
2022/09/30 06:39:50;;;;;;;18.07;15.37;;;9.20;99.90;;;;;;5051687;28;20681;-46
2022/09/30 06:42:18;;;;;;;22.00;15.00;;;9.30;99.90;;;;;;5051680;28;20773;-46
2022/09/30 06:44:44;;;;;;;17.13;14.43;;;9.30;99.90;;;;;;5051408;28;20903;-45
2022/09/30 06:47:14;;;;;;;16.93;13.87;;;9.30;99.90;;;;;;5067093;28;20464;-50
2022/09/30 06:49:41;;;;;;;16.73;14.93;;;9.30;99.90;;;;;;5051532;28;20416;-50
2022/09/30 06:52:11;;;;;;;16.87;14.70;;;9.40;99.90;;;;;;5051570;28;20493;-49
2022/09/30 06:54:42;;;;;;;16.90;14.00;;;9.40;99.90;;;;;;5051622;28;20762;-47
2022/09/30 06:57:08;;;;;;;16.67;14.80;;;9.40;98.80;;;;;;5051563;28;20807;-45
2022/09/30 06:59:34;;;;;;;16.53;14.83;;;9.50;99.90;;;;;;5056873;28;20891;-49
2022/09/30 07:01:59;;;;;;;18.50;14.00;;;9.60;98.40;;;;;;5061476;28;20435;-47
2022/09/30 07:04:25;;;;;;;18.27;14.40;;;9.70;94.50;;;;;;5053461;28;20465;-48
2022/09/30 07:06:51;;;;;;;15.73;13.40;;;9.70;79.60;;;;;;5056936;28;20192;-49
2022/09/30 07:09:17;;;;;;;14.70;12.90;;;9.80;82.30;;;;;;5071185;28;20189;-47
2022/09/30 07:11:42;;;;;;;13.80;12.30;;;9.90;79.00;;;;;;5071136;28;20420;-48
2022/09/30 07:14:09;;;;;;;14.40;12.53;;;10.10;59.50;;;;;;5070886;28;20177;-49
2022/09/30 07:16:35;;;;;;;14.70;13.20;;;10.20;50.40;;;;;;5071168;28;20561;-44
2022/09/30 07:19:02;;;;;;;14.40;12.73;;;10.30;45.30;;;;;;5070864;28;20419;-49
2022/09/30 07:21:30;;;;;;;15.47;13.50;;;10.50;45.30;;;;;;5071353;28;20451;-47
2022/09/30 07:23:57;;;;;;;14.03;12.63;;;10.70;34.40;;;;;;5070609;28;20511;-46
2022/09/30 07:26:24;;;;;;;14.93;12.20;;;10.80;21.10;;;;;;5070953;28;20423;-48
2022/09/30 07:28:50;;;;;;;15.90;12.73;;;10.90;16.60;;;;;;5069206;28;20606;-47
2022/09/30 07:31:22;;;;;;;14.47;12.97;;;11.10;4.10;;;;;;5066320;28;20446;-45
2022/09/30 07:33:50;;;;;;;13.17;11.80;;;11.20;1.00;;;;;;5060920;28;20523;-48
2022/09/30 07:36:18;;;;;;;13.83;12.10;;;11.00;1.00;;;;;;5050822;28;20515;-45
2022/09/30 07:38:45;;;;;;;13.00;11.60;;;11.40;1.00;;;;;;5050953;28;20841;-45
2022/09/30 07:41:14;;;;;;;12.83;11.53;;;11.50;1.00;;;;;;5050739;28;20456;-48
2022/09/30 07:43:43;;;;;;;13.10;10.80;;;11.50;1.00;;;;;;5050318;28;20422;-47
2022/09/30 07:46:12;;;;;;;12.67;11.33;;;11.50;1.00;;;;;;5050124;28;20413;-47
2022/09/30 07:48:47;;;;;;;12.63;11.33;;;11.60;1.00;;;;;;5057165;28;20459;-46
2022/09/30 07:51:31;;;;;;;12.73;11.53;;;11.90;1.00;;;;;;5070114;28;20450;-47
2022/09/30 07:54:24;;;;;;;12.00;10.90;;;12.10;1.00;;;;;;5070688;28;20416;-50
2022/09/30 07:56:51;;;;;;;12.70;11.40;;;12.20;1.00;;;;;;5061376;28;20428;-46
2022/09/30 07:59:17;;;;;;;12.50;11.20;;;12.40;1.00;;;;;;5052357;28;20427;-46
2022/09/30 08:01:44;;;;;;;12.60;11.30;;;12.60;1.00;;;;;;5056924;28;20776;-47
2022/09/30 08:04:11;;;;;;;11.40;10.30;;;12.60;1.00;;;;;;5070259;28;20399;-48
2022/09/30 08:06:44;;;;;;;15.13;11.30;;;12.70;1.00;;;;;;5048626;28;20426;-47
2022/09/30 08:09:10;;;;;;;12.70;11.50;;;12.90;1.00;;;;;;5048912;28;20476;-47
2022/09/30 08:11:37;;;;;;;11.80;10.60;;;13.10;1.00;;;;;;5050124;28;20488;-45
2022/09/30 08:14:03;;;;;;;10.90;9.90;;;13.10;99.90;;;;;;5050019;28;20422;-47
2022/09/30 08:16:28;;;;;;;12.77;10.20;;;12.90;99.90;;;;;;5066143;28;20442;-47
2022/09/30 08:18:55;;;;;;;11.30;10.20;;;13.10;99.90;;;;;;5064044;28;20432;-47
2022/09/30 08:21:22;;;;;;;10.67;9.67;;;13.20;99.90;;;;;;5070179;28;20454;-50
2022/09/30 08:23:47;;;;;;;10.43;9.43;;;13.60;1.00;;;;;;5069440;28;20442;-46
2022/09/30 08:26:14;;;;;;;11.00;10.00;;;13.70;99.90;;;;;;5069236;28;20794;-49
2022/09/30 08:28:40;;;;;;;14.27;11.03;;;13.80;1.00;;;;;;5056396;28;20664;-45
2022/09/30 08:31:23;;;;;;;11.17;10.07;;;14.00;1.00;;;;;;5069420;28;20427;-47
2022/09/30 08:33:49;;;;;;;11.50;10.30;;;14.60;1.00;;;;;;5065836;28;20443;-46
2022/09/30 08:36:16;;;;;;;11.93;10.23;;;15.30;99.90;;;;;;5049384;28;20479;-45
2022/09/30 08:38:42;;;;;;;10.07;9.17;;;16.30;99.90;;;;;;5049468;28;20455;-47
2022/09/30 08:41:26;;;;;;;10.20;9.30;;;17.00;99.90;;;;;;5051213;28;20946;-44
2022/09/30 08:44:00;;;;;;;9.70;8.80;;;18.00;99.90;;;;;;5051238;28;20192;-45
2022/09/30 08:46:25;;;;;;;10.77;9.87;;;18.40;32.30;;;;;;5064632;28;20541;-45
2022/09/30 08:49:10;;;;;;;10.43;9.63;;;18.50;1.00;;;;;;5064562;28;20623;-48
2022/09/30 08:51:42;;;;;;;10.63;9.67;;;18.20;1.00;;;;;;5048969;28;20542;-46
2022/09/30 08:54:12;;;;;;;11.27;10.27;;;18.40;1.00;;;;;;5048868;28;20468;-49
2022/09/30 08:56:38;;;;;;;10.03;9.17;;;19.00;1.00;;;;;;5048915;28;20841;-47
2022/09/30 08:59:05;;;;;;;11.20;10.30;;;19.30;1.00;;;;;;5047957;28;20428;-45
2022/09/30 09:01:34;;;;;;;10.23;9.33;;;19.40;1.00;;;;;;5048810;28;20201;-46
2022/09/30 09:04:01;;;;;;;8.93;8.23;;;19.50;1.00;;;;;;5060876;28;20419;-45
2022/09/30 09:06:35;;;;;;;9.70;9.00;;;19.70;1.00;;;;;;5068520;28;20416;-45
2022/09/30 09:09:31;;;;;;;9.40;8.70;;;19.70;1.00;;;;;;5069219;28;20519;-44
2022/09/30 09:12:15;;;;;;;10.10;9.30;;;19.80;1.00;;;;;;5057436;28;20436;-45
2022/09/30 09:14:55;;;;;;;9.57;8.77;;;20.00;99.90;;;;;;5068030;28;20418;-47
2022/09/30 09:17:39;;;;;;;8.77;8.07;;;20.30;99.90;;;;;;5068675;28;20427;-47
2022/09/30 09:20:17;;;;;;;9.10;8.50;;;20.90;99.90;;;;;;5068965;28;20425;-47
2022/09/30 09:22:47;;;;;;;10.60;9.70;;;20.90;99.90;;;;;;5068641;28;20754;-49
2022/09/30 09:25:21;;;;;;;9.20;8.50;;;21.00;99.90;;;;;;5066970;28;20519;-45
2022/09/30 09:27:57;;;;;;;9.30;8.60;;;20.60;99.90;;;;;;5068780;28;20462;-43
2022/09/30 09:30:33;;;;;;;9.20;8.60;;;20.70;99.90;;;;;;5067503;28;20414;-48
2022/09/30 09:33:06;;;;;;;8.00;7.40;;;20.70;99.90;;;;;;5068729;28;20407;-49
2022/09/30 09:35:40;;;;;;;9.70;8.90;;;20.40;99.90;;;;;;5068218;28;20510;-48
2022/09/30 09:38:35;;;;;;;9.20;8.50;;;20.30;99.90;;;;;;5068734;28;20529;-47
2022/09/30 09:41:01;;;;;;;8.60;8.00;;;20.70;99.90;;;;;;5043949;28;20443;-45
2022/09/30 09:44:07;;;;;;;8.90;8.07;;;21.70;99.90;;;;;;5050558;28;20466;-44
2022/09/30 09:46:46;;;;;;;12.07;11.00;;;23.00;99.90;;;;;;5048222;28;20197;-48
2022/09/30 09:49:12;;;;;;;7.90;7.30;;;24.30;99.90;;;;;;5048499;28;20456;-48
2022/09/30 09:51:46;;;;;;;7.50;6.77;;;25.20;1.00;;;;;;5048290;28;20427;-48
2022/09/30 09:54:13;;;;;;;6.50;6.10;;;25.90;9.70;;;;;;5048570;28;20174;-49
2022/09/30 09:56:39;;;;;;;6.57;6.07;;;25.60;38.00;;;;;;5063379;28;20428;-45
2022/09/30 09:59:12;;;;;;;5.87;5.47;;;25.60;35.70;;;;;;5048626;28;21023;-46
2022/09/30 10:01:50;;;;;;;7.00;6.50;;;26.70;34.30;;;;;;5054971;28;20177;-48
2022/09/30 10:04:23;;;;;;;7.43;6.93;;;27.20;33.10;;;;;;5067018;28;20427;-48
2022/09/30 10:06:52;;;;;;;6.80;6.40;;;27.10;31.30;;;;;;5048230;28;20424;-49
2022/09/30 10:09:35;;;;;;;7.33;6.83;;;27.40;32.90;;;;;;5048529;28;20435;-45
2022/09/30 10:12:07;;;;;;;7.83;7.33;;;27.60;36.20;;;;;;5060762;28;20480;-47
2022/09/30 10:14:34;;;;;;;7.63;7.13;;;28.00;33.00;;;;;;5071328;28;20964;-48
2022/09/30 10:17:03;;;;;;;7.40;6.90;;;27.00;35.30;;;;;;5072039;28;20418;-47
2022/09/30 10:19:32;;;;;;;8.07;7.27;;;26.80;33.80;;;;;;5072038;28;20403;-47
2022/09/30 10:22:06;;;;;;;7.80;7.30;;;26.20;35.90;;;;;;5072041;28;20536;-47
2022/09/30 10:24:33;;;;;;;7.40;6.90;;;26.70;34.80;;;;;;5071916;28;20394;-45
2022/09/30 10:26:59;;;;;;;6.97;6.57;;;27.00;33.00;;;;;;5071700;28;20490;-46
2022/09/30 10:29:30;;;;;;;7.20;6.70;;;27.20;36.00;;;;;;5071993;28;20503;-45
2022/09/30 10:31:58;;;;;;;11.43;10.47;;;27.70;31.60;;;;;;5071969;28;20183;-45
2022/09/30 10:34:29;;;;;;;7.70;7.20;;;28.00;32.20;;;;;;5071984;28;20411;-46
2022/09/30 10:36:56;;;;;;;7.73;7.13;;;27.90;32.70;;;;;;5071589;28;20542;-49
2022/09/30 10:39:27;;;;;;;8.30;7.73;;;28.30;31.60;;;;;;5070930;28;20850;-46
2022/09/30 10:42:02;;;;;;;7.73;7.23;;;28.30;31.00;;;;;;5054209;28;20412;-47
2022/09/30 10:44:28;;;;;;;6.80;6.40;;;28.10;31.50;;;;;;5051561;28;20422;-45
2022/09/30 10:47:00;;;;;;;7.43;6.93;;;28.70;31.40;;;;;;5051321;28;20431;-49
2022/09/30 10:49:44;;;;;;;7.47;6.97;;;29.20;29.40;;;;;;5051615;28;20963;-45
2022/09/30 10:52:29;;;;;;;7.20;6.70;;;28.80;31.00;;;;;;5060420;28;20418;-45
2022/09/30 10:55:04;;;;;;;6.97;6.57;;;28.70;31.20;;;;;;5071648;28;20403;-49
2022/09/30 10:57:36;;;;;;;8.07;7.47;;;29.00;31.10;;;;;;5071361;28;20464;-51
2022/09/30 11:00:06;;;;;;;7.40;6.90;;;29.20;29.00;;;;;;5071431;28;20411;-45
2022/09/30 11:02:32;;;;;;;7.57;7.07;;;29.60;28.30;;;;;;5070078;28;20439;-45
2022/09/30 11:05:14;;;;;;;7.70;7.13;;;29.30;29.20;;;;;;5063686;28;20424;-47
2022/09/30 11:07:43;;;;;;;7.10;6.70;;;29.50;28.60;;;;;;5051837;28;20347;-45
2022/09/30 11:10:33;;;;;;;7.13;6.73;;;29.40;28.60;;;;;;5051372;28;20477;-45
2022/09/30 11:13:12;;;;;;;7.10;6.67;;;29.60;29.40;;;;;;5054746;28;20411;-52
2022/09/30 11:15:43;;;;;;;6.83;6.43;;;29.50;27.90;;;;;;5070944;28;20410;-47
2022/09/30 11:18:29;;;;;;;5.80;5.50;;;29.50;27.20;;;;;;5071285;28;20806;-46
2022/09/30 11:21:02;;;;;;;6.93;6.47;;;30.20;24.00;;;;;;5070622;28;20403;-46
2022/09/30 11:23:31;;;;;;;5.97;5.57;;;30.40;23.00;;;;;;5070761;28;20411;-48
2022/09/30 11:26:18;;;;;;;6.57;6.17;;;30.40;23.60;;;;;;5057433;28;20817;-45
2022/09/30 11:29:06;;;;;;;6.83;6.33;;;29.60;23.70;;;;;;5070701;28;20813;-46
2022/09/30 11:31:44;;;;;;;6.20;5.80;;;29.80;26.40;;;;;;5070281;28;20457;-46
2022/09/30 11:34:27;;;;;;;6.63;6.03;;;29.20;26.40;;;;;;5066192;28;20771;-45
2022/09/30 11:37:15;;;;;;;6.00;5.30;;;29.00;26.10;;;;;;5050439;28;20471;-46
2022/09/30 11:39:44;;;;;;;6.07;5.70;;;29.00;25.80;;;;;;5066091;28;20447;-47
2022/09/30 11:42:38;;;;;;;5.20;4.90;;;29.30;25.20;;;;;;5057220;28;20937;-45
2022/09/30 11:45:25;;;;;;;5.47;5.17;;;29.10;22.80;;;;;;5070460;28;20407;-47
2022/09/30 11:48:15;;;;;;;6.20;5.80;;;28.50;23.00;;;;;;5070609;28;20898;-47
2022/09/30 11:51:07;;;;;;;5.37;5.07;;;28.20;24.00;;;;;;5070560;28;20411;-46
2022/09/30 11:53:47;;;;;;;5.00;4.70;;;28.10;24.30;;;;;;5070398;28;20413;-46
2022/09/30 11:56:40;;;;;;;5.30;5.00;;;28.70;25.00;;;;;;5068525;28;20439;-45
2022/09/30 11:59:19;;;;;;;5.70;5.40;;;29.20;22.60;;;;;;5070205;28;20419;-47
2022/09/30 12:01:49;;;;;;;5.10;4.80;;;28.90;23.10;;;;;;5067419;28;20538;-47
2022/09/30 12:04:25;;;;;;;5.47;4.97;;;29.00;24.30;;;;;;5067224;28;20439;-47
2022/09/30 12:07:02;;;;;;;5.27;4.97;;;29.10;24.20;;;;;;5070183;28;20434;-49
2022/09/30 12:09:36;;;;;;;4.90;4.60;;;28.40;25.00;;;;;;5056239;28;20809;-48
2022/09/30 12:12:09;;;;;;;5.77;5.37;;;28.30;25.70;;;;;;5050797;28;20458;-48
2022/09/30 12:14:49;;;;;;;5.40;5.10;;;27.80;25.60;;;;;;5050676;28;20424;-45
2022/09/30 12:17:32;;;;;;;5.00;4.70;;;28.00;25.60;;;;;;5051064;28;20428;-51
2022/09/30 12:20:24;;;;;;;5.43;5.10;;;28.30;25.40;;;;;;5061164;28;20910;-46
2022/09/30 12:23:00;;;;;;;4.77;4.57;;;28.50;24.20;;;;;;5054203;28;20434;-50
2022/09/30 12:25:35;;;;;;;5.10;4.80;;;28.50;21.40;;;;;;5061254;28;20457;-49
2022/09/30 12:31:12;;;;;;;5.87;5.20;;;28.00;23.60;;;;;;5067061;28;20456;-46
2022/09/30 12:34:23;;;;;;;4.60;4.40;;;27.30;23.90;;;;;;5065520;28;20539;-50
2022/09/30 12:37:02;;;;;;;5.50;5.20;;;27.90;23.40;;;;;;5052915;28;20549;-48
2022/09/30 12:39:42;;;;;;;5.57;5.27;;;28.40;23.90;;;;;;5070313;28;20411;-48
2022/09/30 12:42:41;;;;;;;5.73;5.23;;;27.30;23.10;;;;;;5063641;28;20435;-45
2022/09/30 12:45:40;;;;;;;5.20;4.90;;;26.70;25.60;;;;;;5050016;28;20427;-48
2022/09/30 12:48:11;;;;;;;6.13;5.70;;;26.50;27.40;;;;;;5049840;28;20456;-48
2022/09/30 12:50:48;;;;;;;6.20;5.80;;;26.50;26.10;;;;;;5061425;28;20434;-47
2022/09/30 12:53:23;;;;;;;5.50;5.20;;;26.50;26.20;;;;;;5067276;28;20422;-49
2022/09/30 12:55:49;;;;;;;5.60;5.30;;;25.90;29.10;;;;;;5066134;28;20427;-50
2022/09/30 12:58:56;;;;;;;6.20;5.80;;;25.40;28.90;;;;;;5066734;28;20408;-46
2022/09/30 13:01:24;;;;;;;5.53;5.20;;;24.90;30.30;;;;;;5050710;28;20451;-47
2022/09/30 13:03:52;;;;;;;6.40;6.00;;;24.90;29.60;;;;;;5060212;28;20503;-54
2022/09/30 13:06:22;;;;;;;5.77;5.37;;;25.40;27.50;;;;;;5069548;28;20418;-47
2022/09/30 13:09:10;;;;;;;6.03;5.53;;;25.60;27.70;;;;;;5070443;28;21301;-45
2022/09/30 13:11:55;;;;;;;5.97;5.57;;;25.40;29.20;;;;;;5065339;28;20531;-48